TAP054 GOBD-GVNP
Flight info
| Callsign | TAP054 |
|---|---|
| Flight time | 1h 16m |
| Altitude | 38000 |
| Route | MOGSA DCT SONVA DCT AREPU AREPU1H |
| Aircraft | A20N/M-SDE2E3FGHIRWXY/LB1 |
Departure
| Time | 2026-04-25 19:37 |
|---|---|
| Airport | Blaise Diagne International Airport (GOBD) |
Arrival
| Time | 2026-04-25 20:54 |
|---|---|
| Airport | Nelson Mandela International Airport (GVNP) |
| Time | Latitude | Longitude | Altitude | Speed | Heading |
|---|---|---|---|---|---|
| 2026-04-25 19:21 | 14.67097 | -17.06838 | 301 ft | 0 kts | 83° |
| 2026-04-25 19:27 | 14.67096 | -17.06850 | 300 ft | 2 kts | 86° |
| 2026-04-25 19:28 | 14.67095 | -17.06867 | 300 ft | 2 kts | 91° |
| 2026-04-25 19:28 | 14.67096 | -17.06884 | 301 ft | 2 kts | 99° |
| 2026-04-25 19:28 | 14.67101 | -17.06900 | 298 ft | 2 kts | 115° |
| 2026-04-25 19:28 | 14.67110 | -17.06914 | 300 ft | 2 kts | 133° |
| 2026-04-25 19:29 | 14.67118 | -17.06928 | 301 ft | 2 kts | 103° |
| 2026-04-25 19:29 | 14.67158 | -17.06977 | 299 ft | 2 kts | 345° |
| 2026-04-25 19:29 | 14.67142 | -17.06973 | 300 ft | 2 kts | 334° |
| 2026-04-25 19:29 | 14.67140 | -17.06974 | 300 ft | 1 kts | 296° |
| 2026-04-25 19:30 | 14.67132 | -17.06981 | 301 ft | 1 kts | 178° |
| 2026-04-25 19:33 | 14.67131 | -17.06981 | 301 ft | 1 kts | 178° |
| 2026-04-25 19:33 | 14.67092 | -17.06998 | 297 ft | 11 kts | 223° |
| 2026-04-25 19:33 | 14.67067 | -17.07074 | 300 ft | 13 kts | 233° |
| 2026-04-25 19:33 | 14.66958 | -17.07093 | 299 ft | 22 kts | 179° |
| 2026-04-25 19:34 | 14.66755 | -17.07092 | 299 ft | 36 kts | 180° |
| 2026-04-25 19:34 | 14.66469 | -17.07086 | 301 ft | 42 kts | 181° |
| 2026-04-25 19:34 | 14.66200 | -17.07086 | 303 ft | 36 kts | 178° |
| 2026-04-25 19:34 | 14.65950 | -17.07086 | 307 ft | 35 kts | 188° |
| 2026-04-25 19:35 | 14.65731 | -17.07079 | 307 ft | 26 kts | 179° |
| 2026-04-25 19:35 | 14.65568 | -17.07080 | 308 ft | 18 kts | 185° |
| 2026-04-25 19:35 | 14.65531 | -17.07103 | 309 ft | 2 kts | 263° |
| 2026-04-25 19:35 | 14.65532 | -17.07139 | 308 ft | 9 kts | 272° |
| 2026-04-25 19:36 | 14.65532 | -17.07167 | 308 ft | 6 kts | 269° |
| 2026-04-25 19:36 | 14.65554 | -17.07245 | 308 ft | 12 kts | 307° |
| 2026-04-25 19:36 | 14.65619 | -17.07269 | 307 ft | 0 kts | 3° |
| 2026-04-25 19:36 | 14.65727 | -17.07267 | 306 ft | 48 kts | 358° |
| 2026-04-25 19:37 | 14.66287 | -17.07274 | 306 ft | 112 kts | 0° |
| 2026-04-25 19:37 | 14.67239 | -17.07288 | 366 ft | 153 kts | 360° |
| 2026-04-25 19:37 | 14.68290 | -17.07308 | 868 ft | 153 kts | 360° |
| 2026-04-25 19:37 | 14.69357 | -17.07318 | 1410 ft | 154 kts | 1° |
| 2026-04-25 19:38 | 14.70460 | -17.07323 | 1883 ft | 165 kts | 2° |
| 2026-04-25 19:38 | 14.71716 | -17.07325 | 2186 ft | 195 kts | 1° |
| 2026-04-25 19:38 | 14.73160 | -17.07330 | 2449 ft | 222 kts | 2° |
| 2026-04-25 19:38 | 14.74807 | -17.07334 | 2788 ft | 246 kts | 1° |
| 2026-04-25 19:39 | 14.76530 | -17.07340 | 3429 ft | 253 kts | 0° |
| 2026-04-25 19:39 | 14.78305 | -17.07352 | 4153 ft | 257 kts | 359° |
| 2026-04-25 19:39 | 14.80114 | -17.07364 | 4895 ft | 261 kts | 359° |
| 2026-04-25 19:39 | 14.81942 | -17.07375 | 5652 ft | 264 kts | 359° |
| 2026-04-25 19:40 | 14.83806 | -17.07386 | 6320 ft | 272 kts | 359° |
| 2026-04-25 19:40 | 14.85722 | -17.07406 | 6981 ft | 277 kts | 355° |
| 2026-04-25 19:40 | 14.87633 | -17.07741 | 7651 ft | 282 kts | 341° |
| 2026-04-25 19:40 | 14.89371 | -17.08699 | 8307 ft | 286 kts | 319° |
| 2026-04-25 19:41 | 14.90566 | -17.10315 | 8991 ft | 288 kts | 291° |
| 2026-04-25 19:41 | 14.91016 | -17.12327 | 9747 ft | 290 kts | 275° |
| 2026-04-25 19:41 | 14.91096 | -17.14440 | 10258 ft | 302 kts | 267° |
| 2026-04-25 19:41 | 14.91028 | -17.15939 | 10442 ft | 315 kts | 265° |
| 2026-04-25 19:42 | 14.90746 | -17.19052 | 10790 ft | 341 kts | 263° |
| 2026-04-25 19:42 | 14.90492 | -17.21543 | 11085 ft | 355 kts | 263° |
| 2026-04-25 19:42 | 14.90251 | -17.24121 | 11515 ft | 364 kts | 264° |
| 2026-04-25 19:42 | 14.90034 | -17.26736 | 12163 ft | 366 kts | 265° |
| 2026-04-25 19:43 | 14.89838 | -17.29377 | 12817 ft | 367 kts | 265° |
| 2026-04-25 19:43 | 14.89658 | -17.32022 | 13459 ft | 370 kts | 265° |
| 2026-04-25 19:43 | 14.89484 | -17.34690 | 14056 ft | 373 kts | 266° |
| 2026-04-25 19:43 | 14.89312 | -17.37378 | 14549 ft | 376 kts | 266° |
| 2026-04-25 19:44 | 14.89140 | -17.40075 | 14796 ft | 376 kts | 266° |
| 2026-04-25 19:44 | 14.88966 | -17.42770 | 14860 ft | 377 kts | 266° |
| 2026-04-25 19:44 | 14.88789 | -17.45465 | 15217 ft | 381 kts | 266° |
| 2026-04-25 19:44 | 14.88608 | -17.48201 | 15851 ft | 382 kts | 266° |
| 2026-04-25 19:45 | 14.88426 | -17.50952 | 16456 ft | 384 kts | 266° |
| 2026-04-25 19:45 | 14.88243 | -17.53711 | 17046 ft | 386 kts | 266° |
| 2026-04-25 19:45 | 14.88059 | -17.56494 | 17578 ft | 389 kts | 266° |
| 2026-04-25 19:45 | 14.87874 | -17.59293 | 18087 ft | 392 kts | 267° |
| 2026-04-25 19:46 | 14.87687 | -17.62115 | 18510 ft | 395 kts | 267° |
| 2026-04-25 19:46 | 14.87496 | -17.64961 | 18881 ft | 399 kts | 267° |
| 2026-04-25 19:46 | 14.87303 | -17.67845 | 19248 ft | 402 kts | 267° |
| 2026-04-25 19:46 | 14.87109 | -17.70741 | 19602 ft | 405 kts | 267° |
| 2026-04-25 19:47 | 14.86916 | -17.73616 | 19948 ft | 408 kts | 267° |
| 2026-04-25 19:47 | 14.86719 | -17.76555 | 20305 ft | 410 kts | 267° |
| 2026-04-25 19:47 | 14.86520 | -17.79509 | 20680 ft | 413 kts | 267° |
| 2026-04-25 19:47 | 14.86319 | -17.82476 | 21040 ft | 415 kts | 267° |
| 2026-04-25 19:48 | 14.86116 | -17.85467 | 21412 ft | 418 kts | 267° |
| 2026-04-25 19:48 | 14.85910 | -17.88477 | 21765 ft | 422 kts | 267° |
| 2026-04-25 19:48 | 14.85703 | -17.91514 | 22126 ft | 425 kts | 268° |
| 2026-04-25 19:48 | 14.85496 | -17.94573 | 22539 ft | 427 kts | 268° |
| 2026-04-25 19:49 | 14.85285 | -17.97654 | 22943 ft | 429 kts | 268° |
| 2026-04-25 19:49 | 14.85146 | -17.99694 | 23166 ft | 432 kts | 268° |
| 2026-04-25 19:49 | 14.84862 | -18.03861 | 23574 ft | 437 kts | 268° |
| 2026-04-25 19:49 | 14.84649 | -18.06958 | 23932 ft | 438 kts | 268° |
| 2026-04-25 19:50 | 14.84213 | -18.13271 | 24614 ft | 443 kts | 268° |
| 2026-04-25 19:50 | 14.83994 | -18.16450 | 24963 ft | 445 kts | 268° |
| 2026-04-25 19:50 | 14.83772 | -18.19655 | 25342 ft | 447 kts | 268° |
| 2026-04-25 19:51 | 14.83550 | -18.22857 | 25715 ft | 449 kts | 268° |
| 2026-04-25 19:51 | 14.83324 | -18.26096 | 26102 ft | 450 kts | 268° |
| 2026-04-25 19:51 | 14.83102 | -18.29296 | 26476 ft | 452 kts | 268° |
| 2026-04-25 19:51 | 14.82875 | -18.32552 | 26850 ft | 454 kts | 268° |
| 2026-04-25 19:52 | 14.82647 | -18.35807 | 27217 ft | 456 kts | 268° |
| 2026-04-25 19:52 | 14.82418 | -18.39087 | 27572 ft | 458 kts | 269° |
| 2026-04-25 19:52 | 14.82188 | -18.42377 | 27923 ft | 460 kts | 269° |
| 2026-04-25 19:52 | 14.81954 | -18.45695 | 28272 ft | 462 kts | 269° |
| 2026-04-25 19:53 | 14.81721 | -18.48997 | 28776 ft | 460 kts | 269° |
| 2026-04-25 19:53 | 14.81488 | -18.52278 | 29320 ft | 457 kts | 269° |
| 2026-04-25 19:53 | 14.81256 | -18.55552 | 29844 ft | 455 kts | 269° |
| 2026-04-25 19:53 | 14.81028 | -18.58769 | 30269 ft | 453 kts | 269° |
| 2026-04-25 19:54 | 14.80797 | -18.62023 | 30671 ft | 452 kts | 269° |
| 2026-04-25 19:54 | 14.80567 | -18.65257 | 31072 ft | 450 kts | 269° |
| 2026-04-25 19:54 | 14.80337 | -18.68487 | 31478 ft | 449 kts | 269° |
| 2026-04-25 19:54 | 14.80185 | -18.70620 | 31747 ft | 448 kts | 269° |
| 2026-04-25 19:55 | 14.79879 | -18.74902 | 32285 ft | 446 kts | 269° |
| 2026-04-25 19:55 | 14.79650 | -18.78093 | 32680 ft | 445 kts | 268° |
| 2026-04-25 19:55 | 14.79424 | -18.81243 | 33063 ft | 443 kts | 268° |
| 2026-04-25 19:55 | 14.79194 | -18.84415 | 33458 ft | 442 kts | 268° |
| 2026-04-25 19:56 | 14.78965 | -18.87585 | 33845 ft | 441 kts | 268° |
| 2026-04-25 19:56 | 14.78736 | -18.90737 | 34185 ft | 439 kts | 268° |
| 2026-04-25 19:56 | 14.78507 | -18.93884 | 34509 ft | 438 kts | 268° |
| 2026-04-25 19:56 | 14.78278 | -18.97024 | 34826 ft | 437 kts | 268° |
| 2026-04-25 19:57 | 14.78052 | -19.00117 | 35137 ft | 436 kts | 268° |
| 2026-04-25 19:57 | 14.77824 | -19.03236 | 35448 ft | 434 kts | 268° |
| 2026-04-25 19:57 | 14.77595 | -19.06356 | 35752 ft | 433 kts | 268° |
| 2026-04-25 19:57 | 14.77367 | -19.09456 | 36039 ft | 432 kts | 268° |
| 2026-04-25 19:58 | 14.77139 | -19.12549 | 36315 ft | 431 kts | 267° |
| 2026-04-25 19:58 | 14.76910 | -19.15650 | 36593 ft | 430 kts | 267° |
| 2026-04-25 19:58 | 14.76683 | -19.18731 | 36871 ft | 430 kts | 267° |
| 2026-04-25 19:58 | 14.76456 | -19.21805 | 37141 ft | 429 kts | 267° |
| 2026-04-25 19:59 | 14.76228 | -19.24871 | 37418 ft | 428 kts | 267° |
| 2026-04-25 19:59 | 14.76001 | -19.27931 | 37687 ft | 427 kts | 267° |
| 2026-04-25 19:59 | 14.75774 | -19.30987 | 37878 ft | 427 kts | 267° |
| 2026-04-25 20:00 | 14.75321 | -19.37072 | 37905 ft | 426 kts | 267° |
| 2026-04-25 20:00 | 14.74864 | -19.43176 | 37906 ft | 425 kts | 267° |
| 2026-04-25 20:01 | 14.74182 | -19.52281 | 37903 ft | 426 kts | 267° |
| 2026-04-25 20:01 | 14.73722 | -19.58393 | 37905 ft | 426 kts | 267° |
| 2026-04-25 20:02 | 14.73261 | -19.64487 | 37906 ft | 426 kts | 267° |
| 2026-04-25 20:02 | 14.72797 | -19.70610 | 37908 ft | 426 kts | 267° |
| 2026-04-25 20:03 | 14.72337 | -19.76674 | 37911 ft | 426 kts | 266° |
| 2026-04-25 20:03 | 14.71871 | -19.82785 | 37911 ft | 426 kts | 266° |
| 2026-04-25 20:04 | 14.71402 | -19.88884 | 37908 ft | 425 kts | 266° |
| 2026-04-25 20:04 | 14.70933 | -19.94979 | 37911 ft | 425 kts | 266° |
| 2026-04-25 20:05 | 14.70464 | -20.01073 | 37914 ft | 425 kts | 266° |
| 2026-04-25 20:05 | 14.69992 | -20.07159 | 37914 ft | 425 kts | 266° |
| 2026-04-25 20:06 | 14.69522 | -20.13224 | 37911 ft | 425 kts | 266° |
| 2026-04-25 20:06 | 14.69061 | -20.19326 | 37913 ft | 425 kts | 269° |
| 2026-04-25 20:07 | 14.69284 | -20.25392 | 37916 ft | 425 kts | 275° |
| 2026-04-25 20:07 | 14.69754 | -20.31479 | 37917 ft | 425 kts | 275° |
| 2026-04-25 20:08 | 14.70252 | -20.37568 | 37920 ft | 425 kts | 275° |
| 2026-04-25 20:08 | 14.70755 | -20.43667 | 37922 ft | 424 kts | 275° |
| 2026-04-25 20:09 | 14.71256 | -20.49736 | 37922 ft | 423 kts | 275° |
| 2026-04-25 20:09 | 14.71751 | -20.55748 | 37922 ft | 422 kts | 275° |
| 2026-04-25 20:10 | 14.72250 | -20.61805 | 37925 ft | 422 kts | 275° |
| 2026-04-25 20:10 | 14.72747 | -20.67867 | 37925 ft | 422 kts | 275° |
| 2026-04-25 20:11 | 14.73241 | -20.73906 | 37925 ft | 422 kts | 275° |
| 2026-04-25 20:11 | 14.73731 | -20.79930 | 37925 ft | 422 kts | 275° |
| 2026-04-25 20:12 | 14.74222 | -20.85981 | 37925 ft | 422 kts | 275° |
| 2026-04-25 20:12 | 14.74546 | -20.89990 | 37925 ft | 422 kts | 275° |
| 2026-04-25 20:13 | 14.75197 | -20.98054 | 37928 ft | 422 kts | 275° |
| 2026-04-25 20:13 | 14.75683 | -21.04115 | 37814 ft | 422 kts | 275° |
| 2026-04-25 20:14 | 14.75925 | -21.07133 | 37550 ft | 422 kts | 275° |
| 2026-04-25 20:14 | 14.76166 | -21.10151 | 37292 ft | 422 kts | 275° |
| 2026-04-25 20:14 | 14.76409 | -21.13185 | 37035 ft | 423 kts | 275° |
| 2026-04-25 20:14 | 14.76651 | -21.16220 | 36780 ft | 424 kts | 275° |
| 2026-04-25 20:15 | 14.76893 | -21.19258 | 36540 ft | 425 kts | 275° |
| 2026-04-25 20:15 | 14.77136 | -21.22300 | 36293 ft | 425 kts | 275° |
| 2026-04-25 20:15 | 14.77376 | -21.25315 | 36053 ft | 426 kts | 275° |
| 2026-04-25 20:15 | 14.77619 | -21.28368 | 35810 ft | 427 kts | 275° |
| 2026-04-25 20:16 | 14.77861 | -21.31428 | 35569 ft | 428 kts | 275° |
| 2026-04-25 20:16 | 14.78104 | -21.34505 | 35331 ft | 428 kts | 275° |
| 2026-04-25 20:16 | 14.78346 | -21.37578 | 35090 ft | 429 kts | 275° |
| 2026-04-25 20:16 | 14.78589 | -21.40650 | 34868 ft | 430 kts | 275° |
| 2026-04-25 20:17 | 14.78832 | -21.43739 | 34638 ft | 431 kts | 275° |
| 2026-04-25 20:17 | 14.78992 | -21.45780 | 34483 ft | 431 kts | 276° |
| 2026-04-25 20:17 | 14.79316 | -21.49888 | 34178 ft | 432 kts | 275° |
| 2026-04-25 20:17 | 14.79559 | -21.52987 | 33950 ft | 432 kts | 276° |
| 2026-04-25 20:18 | 14.79802 | -21.56090 | 33694 ft | 433 kts | 276° |
| 2026-04-25 20:18 | 14.80043 | -21.59188 | 33436 ft | 434 kts | 276° |
| 2026-04-25 20:18 | 14.80207 | -21.61300 | 33266 ft | 435 kts | 276° |
| 2026-04-25 20:18 | 14.80447 | -21.64376 | 33016 ft | 435 kts | 276° |
| 2026-04-25 20:19 | 14.80689 | -21.67496 | 32762 ft | 436 kts | 276° |
| 2026-04-25 20:19 | 14.80930 | -21.70623 | 32514 ft | 437 kts | 276° |
| 2026-04-25 20:19 | 14.81173 | -21.73764 | 32269 ft | 438 kts | 276° |
| 2026-04-25 20:19 | 14.81417 | -21.76904 | 32024 ft | 439 kts | 276° |
| 2026-04-25 20:20 | 14.81660 | -21.80050 | 31789 ft | 440 kts | 276° |
| 2026-04-25 20:20 | 14.81902 | -21.83208 | 31543 ft | 440 kts | 277° |
| 2026-04-25 20:20 | 14.82144 | -21.86373 | 31305 ft | 441 kts | 277° |
| 2026-04-25 20:20 | 14.82387 | -21.89537 | 31072 ft | 442 kts | 277° |
| 2026-04-25 20:21 | 14.82629 | -21.92707 | 30846 ft | 443 kts | 277° |
| 2026-04-25 20:21 | 14.82868 | -21.95844 | 30609 ft | 443 kts | 277° |
| 2026-04-25 20:21 | 14.83115 | -21.99072 | 30374 ft | 444 kts | 277° |
| 2026-04-25 20:21 | 14.83354 | -22.02215 | 30150 ft | 445 kts | 277° |
| 2026-04-25 20:22 | 14.83597 | -22.05406 | 29908 ft | 446 kts | 277° |
| 2026-04-25 20:22 | 14.83758 | -22.07533 | 29728 ft | 447 kts | 277° |
| 2026-04-25 20:22 | 14.84082 | -22.11818 | 29370 ft | 448 kts | 277° |
| 2026-04-25 20:22 | 14.84324 | -22.15037 | 29109 ft | 449 kts | 277° |
| 2026-04-25 20:23 | 14.84567 | -22.18265 | 28855 ft | 451 kts | 277° |
| 2026-04-25 20:23 | 14.84810 | -22.21505 | 28595 ft | 452 kts | 277° |
| 2026-04-25 20:23 | 14.85052 | -22.24746 | 28339 ft | 453 kts | 277° |
| 2026-04-25 20:23 | 14.85295 | -22.28003 | 28085 ft | 454 kts | 277° |
| 2026-04-25 20:24 | 14.85537 | -22.31253 | 27842 ft | 455 kts | 277° |
| 2026-04-25 20:24 | 14.85777 | -22.34475 | 27592 ft | 455 kts | 277° |
| 2026-04-25 20:24 | 14.86020 | -22.37737 | 27345 ft | 455 kts | 277° |
| 2026-04-25 20:24 | 14.86262 | -22.41007 | 27102 ft | 457 kts | 277° |
| 2026-04-25 20:25 | 14.86505 | -22.44292 | 26858 ft | 458 kts | 277° |
| 2026-04-25 20:25 | 14.86748 | -22.47577 | 26618 ft | 459 kts | 277° |
| 2026-04-25 20:25 | 14.86990 | -22.50879 | 26381 ft | 460 kts | 276° |
| 2026-04-25 20:25 | 14.87232 | -22.54176 | 26145 ft | 461 kts | 276° |
| 2026-04-25 20:26 | 14.87475 | -22.57493 | 25911 ft | 462 kts | 276° |
| 2026-04-25 20:26 | 14.87718 | -22.60819 | 25682 ft | 464 kts | 276° |
| 2026-04-25 20:26 | 14.87958 | -22.64109 | 25457 ft | 465 kts | 276° |
| 2026-04-25 20:26 | 14.88202 | -22.67449 | 25226 ft | 466 kts | 276° |
| 2026-04-25 20:27 | 14.88445 | -22.70792 | 24999 ft | 466 kts | 276° |
| 2026-04-25 20:27 | 14.88689 | -22.74145 | 24586 ft | 469 kts | 276° |
| 2026-04-25 20:27 | 14.88934 | -22.77513 | 23666 ft | 471 kts | 276° |
| 2026-04-25 20:27 | 14.89176 | -22.80879 | 22449 ft | 466 kts | 276° |
| 2026-04-25 20:28 | 14.89413 | -22.84189 | 21219 ft | 458 kts | 275° |
| 2026-04-25 20:28 | 14.89646 | -22.87452 | 20035 ft | 450 kts | 275° |
| 2026-04-25 20:28 | 14.89874 | -22.90626 | 19054 ft | 437 kts | 275° |
| 2026-04-25 20:28 | 14.90098 | -22.93737 | 17799 ft | 431 kts | 274° |
| 2026-04-25 20:29 | 14.90314 | -22.96767 | 16524 ft | 424 kts | 274° |
| 2026-04-25 20:29 | 14.90529 | -22.99778 | 15465 ft | 413 kts | 274° |
| 2026-04-25 20:29 | 14.90739 | -23.02729 | 14199 ft | 409 kts | 274° |
| 2026-04-25 20:29 | 14.90945 | -23.05635 | 13230 ft | 398 kts | 274° |
| 2026-04-25 20:30 | 14.91080 | -23.07522 | 12888 ft | 382 kts | 274° |
| 2026-04-25 20:30 | 14.91091 | -23.11035 | 12095 ft | 357 kts | 267° |
| 2026-04-25 20:30 | 14.90876 | -23.13536 | 11481 ft | 343 kts | 263° |
| 2026-04-25 20:30 | 14.90559 | -23.15950 | 10872 ft | 332 kts | 262° |
| 2026-04-25 20:31 | 14.90244 | -23.18251 | 10278 ft | 322 kts | 261° |
| 2026-04-25 20:31 | 14.89882 | -23.20506 | 9674 ft | 313 kts | 257° |
| 2026-04-25 20:31 | 14.89357 | -23.22655 | 9031 ft | 304 kts | 253° |
| 2026-04-25 20:31 | 14.88734 | -23.24711 | 8393 ft | 297 kts | 252° |
| 2026-04-25 20:32 | 14.88089 | -23.26701 | 7937 ft | 286 kts | 252° |
| 2026-04-25 20:32 | 14.87448 | -23.28634 | 7474 ft | 284 kts | 252° |
| 2026-04-25 20:32 | 14.86796 | -23.30557 | 7008 ft | 283 kts | 252° |
| 2026-04-25 20:32 | 14.86134 | -23.32477 | 6543 ft | 282 kts | 252° |
| 2026-04-25 20:33 | 14.85459 | -23.34381 | 6103 ft | 280 kts | 252° |
| 2026-04-25 20:33 | 14.84796 | -23.36235 | 5677 ft | 278 kts | 252° |
| 2026-04-25 20:33 | 14.84118 | -23.38100 | 5233 ft | 276 kts | 251° |
| 2026-04-25 20:33 | 14.83671 | -23.39330 | 4955 ft | 276 kts | 252° |
| 2026-04-25 20:34 | 14.82748 | -23.41797 | 4382 ft | 274 kts | 253° |
| 2026-04-25 20:34 | 14.82046 | -23.43621 | 3945 ft | 273 kts | 251° |
| 2026-04-25 20:34 | 14.81345 | -23.45445 | 3526 ft | 272 kts | 251° |
| 2026-04-25 20:34 | 14.80655 | -23.47268 | 3140 ft | 271 kts | 252° |
| 2026-04-25 20:35 | 14.79976 | -23.49070 | 3005 ft | 269 kts | 252° |
| 2026-04-25 20:35 | 14.79294 | -23.50875 | 2994 ft | 270 kts | 252° |
| 2026-04-25 20:35 | 14.78618 | -23.52660 | 2989 ft | 270 kts | 253° |
| 2026-04-25 20:35 | 14.78280 | -23.54538 | 2988 ft | 263 kts | 277° |
| 2026-04-25 20:36 | 14.78832 | -23.56294 | 2990 ft | 256 kts | 304° |
| 2026-04-25 20:36 | 14.79904 | -23.57746 | 2985 ft | 254 kts | 322° |
| 2026-04-25 20:36 | 14.81441 | -23.58611 | 2988 ft | 252 kts | 343° |
| 2026-04-25 20:36 | 14.83178 | -23.58730 | 2918 ft | 253 kts | 11° |
| 2026-04-25 20:37 | 14.84747 | -23.57949 | 2614 ft | 253 kts | 41° |
| 2026-04-25 20:37 | 14.85704 | -23.56487 | 2492 ft | 245 kts | 65° |
| 2026-04-25 20:37 | 14.86175 | -23.54845 | 2489 ft | 231 kts | 82° |
| 2026-04-25 20:37 | 14.86182 | -23.53238 | 2520 ft | 214 kts | 91° |
| 2026-04-25 20:38 | 14.86059 | -23.51799 | 2506 ft | 193 kts | 91° |
| 2026-04-25 20:38 | 14.86233 | -23.50539 | 2478 ft | 164 kts | 65° |
| 2026-04-25 20:38 | 14.86960 | -23.49708 | 2492 ft | 154 kts | 16° |
| 2026-04-25 20:38 | 14.87973 | -23.49667 | 2367 ft | 143 kts | 356° |
| 2026-04-25 20:39 | 14.88955 | -23.49709 | 2095 ft | 141 kts | 1° |
| 2026-04-25 20:39 | 14.89955 | -23.49621 | 1666 ft | 146 kts | 10° |
| 2026-04-25 20:39 | 14.90930 | -23.49427 | 1336 ft | 143 kts | 13° |
| 2026-04-25 20:39 | 14.91591 | -23.49297 | 1032 ft | 148 kts | 12° |
| 2026-04-25 20:40 | 14.92900 | -23.48981 | 563 ft | 139 kts | 27° |
| 2026-04-25 20:40 | 14.93757 | -23.48614 | 329 ft | 126 kts | 22° |
| 2026-04-25 20:40 | 14.94578 | -23.48266 | 521 ft | 140 kts | 26° |
| 2026-04-25 20:40 | 14.95504 | -23.47833 | 1309 ft | 148 kts | 24° |
| 2026-04-25 20:41 | 14.96479 | -23.47422 | 2244 ft | 152 kts | 21° |
| 2026-04-25 20:41 | 14.97488 | -23.47021 | 3043 ft | 160 kts | 20° |
| 2026-04-25 20:41 | 14.98582 | -23.46578 | 3462 ft | 180 kts | 20° |
| 2026-04-25 20:41 | 14.99695 | -23.45918 | 3611 ft | 191 kts | 45° |
| 2026-04-25 20:42 | 15.00235 | -23.44630 | 3837 ft | 208 kts | 84° |
| 2026-04-25 20:42 | 14.99877 | -23.43130 | 4311 ft | 227 kts | 118° |
| 2026-04-25 20:42 | 14.98806 | -23.41896 | 4764 ft | 236 kts | 139° |
| 2026-04-25 20:42 | 14.97552 | -23.40807 | 4954 ft | 235 kts | 141° |
| 2026-04-25 20:43 | 14.96283 | -23.39741 | 4980 ft | 235 kts | 142° |
| 2026-04-25 20:43 | 14.95023 | -23.38678 | 4990 ft | 239 kts | 141° |
| 2026-04-25 20:43 | 14.93730 | -23.37590 | 4979 ft | 240 kts | 141° |
| 2026-04-25 20:43 | 14.92434 | -23.36500 | 4977 ft | 240 kts | 141° |
| 2026-04-25 20:44 | 14.91138 | -23.35413 | 4991 ft | 239 kts | 141° |
| 2026-04-25 20:44 | 14.89825 | -23.34362 | 4981 ft | 238 kts | 149° |
| 2026-04-25 20:44 | 14.88305 | -23.33707 | 4987 ft | 237 kts | 171° |
| 2026-04-25 20:44 | 14.86701 | -23.33797 | 4982 ft | 230 kts | 203° |
| 2026-04-25 20:45 | 14.85332 | -23.34618 | 4987 ft | 226 kts | 219° |
| 2026-04-25 20:45 | 14.84121 | -23.35612 | 4995 ft | 225 kts | 222° |
| 2026-04-25 20:45 | 14.82921 | -23.36648 | 4934 ft | 224 kts | 221° |
| 2026-04-25 20:45 | 14.81728 | -23.37697 | 4477 ft | 225 kts | 225° |
| 2026-04-25 20:46 | 14.80534 | -23.38761 | 3896 ft | 228 kts | 223° |
| 2026-04-25 20:46 | 14.79323 | -23.39837 | 3377 ft | 231 kts | 225° |
| 2026-04-25 20:46 | 14.78096 | -23.40922 | 3055 ft | 232 kts | 224° |
| 2026-04-25 20:46 | 14.76872 | -23.41999 | 2980 ft | 230 kts | 224° |
| 2026-04-25 20:47 | 14.75646 | -23.43077 | 2978 ft | 230 kts | 223° |
| 2026-04-25 20:47 | 14.74447 | -23.44128 | 2970 ft | 227 kts | 223° |
| 2026-04-25 20:47 | 14.73247 | -23.45180 | 2975 ft | 225 kts | 224° |
| 2026-04-25 20:47 | 14.72257 | -23.46413 | 2975 ft | 221 kts | 249° |
| 2026-04-25 20:48 | 14.72023 | -23.47924 | 2980 ft | 210 kts | 284° |
| 2026-04-25 20:48 | 14.72431 | -23.49359 | 2983 ft | 207 kts | 296° |
| 2026-04-25 20:48 | 14.72975 | -23.50739 | 2985 ft | 207 kts | 297° |
| 2026-04-25 20:48 | 14.73541 | -23.52114 | 2984 ft | 208 kts | 297° |
| 2026-04-25 20:49 | 14.74246 | -23.53405 | 2981 ft | 206 kts | 310° |
| 2026-04-25 20:49 | 14.75279 | -23.54408 | 2981 ft | 204 kts | 329° |
| 2026-04-25 20:49 | 14.76562 | -23.54986 | 2699 ft | 203 kts | 348° |
| 2026-04-25 20:49 | 14.77946 | -23.55038 | 2509 ft | 199 kts | 9° |
| 2026-04-25 20:50 | 14.79288 | -23.54650 | 2490 ft | 201 kts | 19° |
| 2026-04-25 20:50 | 14.80585 | -23.54121 | 2486 ft | 199 kts | 21° |
| 2026-04-25 20:50 | 14.81815 | -23.53596 | 2488 ft | 185 kts | 21° |
| 2026-04-25 20:50 | 14.82959 | -23.53108 | 2464 ft | 169 kts | 21° |
| 2026-04-25 20:51 | 14.83990 | -23.52673 | 2351 ft | 152 kts | 21° |
| 2026-04-25 20:51 | 14.84924 | -23.52282 | 2098 ft | 140 kts | 20° |
| 2026-04-25 20:51 | 14.85794 | -23.51920 | 1846 ft | 129 kts | 22° |
| 2026-04-25 20:51 | 14.86594 | -23.51585 | 1598 ft | 120 kts | 22° |
| 2026-04-25 20:52 | 14.87352 | -23.51254 | 1380 ft | 118 kts | 23° |
| 2026-04-25 20:52 | 14.87850 | -23.51028 | 1318 ft | 119 kts | 25° |
| 2026-04-25 20:52 | 14.88880 | -23.50572 | 1195 ft | 121 kts | 22° |
| 2026-04-25 20:52 | 14.89688 | -23.50203 | 1080 ft | 129 kts | 19° |
| 2026-04-25 20:53 | 14.90525 | -23.49928 | 927 ft | 122 kts | 18° |
| 2026-04-25 20:53 | 14.91302 | -23.49612 | 779 ft | 118 kts | 26° |
| 2026-04-25 20:53 | 14.92066 | -23.49303 | 614 ft | 119 kts | 21° |
| 2026-04-25 20:53 | 14.92835 | -23.48989 | 467 ft | 118 kts | 22° |
| 2026-04-25 20:54 | 14.93593 | -23.48684 | 332 ft | 116 kts | 23° |
| 2026-04-25 20:54 | 14.94279 | -23.48399 | 314 ft | 90 kts | 21° |
| 2026-04-25 20:54 | 14.94699 | -23.48228 | 320 ft | 49 kts | 23° |
| 2026-04-25 20:54 | 14.94927 | -23.48127 | 321 ft | 14 kts | 42° |
| 2026-04-25 20:55 | 14.94967 | -23.48097 | 324 ft | 1 kts | 344° |
| 2026-04-25 20:55 | 14.94959 | -23.48122 | 323 ft | 10 kts | 214° |
| 2026-04-25 20:55 | 14.94819 | -23.48176 | 321 ft | 33 kts | 202° |
| 2026-04-25 20:55 | 14.94599 | -23.48270 | 318 ft | 18 kts | 203° |
| 2026-04-25 20:56 | 14.94558 | -23.48370 | 315 ft | 16 kts | 290° |
| 2026-04-25 20:56 | 14.94565 | -23.48454 | 316 ft | 8 kts | 229° |
| 2026-04-25 20:56 | 14.94545 | -23.48486 | 316 ft | 5 kts | 289° |
| 2026-04-25 20:56 | 14.94563 | -23.48520 | 316 ft | 6 kts | 294° |
| 2026-04-25 20:57 | 14.94567 | -23.48530 | 314 ft | 0 kts | 293° |